createdAt,value
2019-01-11T00:00:49.195Z,0
2019-01-11T00:01:48.925Z,0
2019-01-11T00:02:56.663Z,0
2019-01-11T00:03:50.035Z,0
2019-01-11T00:04:49.165Z,0
2019-01-11T00:05:48.841Z,0
2019-01-11T00:06:49.068Z,0
2019-01-11T00:07:49.060Z,0
2019-01-11T00:08:49.028Z,0
2019-01-11T00:09:49.013Z,0
2019-01-11T00:10:48.737Z,0
2019-01-11T00:11:48.965Z,0
2019-01-11T00:12:48.946Z,0
2019-01-11T00:13:48.676Z,0
2019-01-11T00:14:48.893Z,0
2019-01-11T00:15:48.900Z,0
2019-01-11T00:16:48.607Z,0
2019-01-11T00:17:48.834Z,0
2019-01-11T00:18:48.567Z,0
2019-01-11T00:19:48.795Z,0
2019-01-11T00:20:48.529Z,0
2019-01-11T00:21:48.757Z,0
2019-01-11T00:22:48.728Z,0
2019-01-11T00:23:48.712Z,0
2019-01-11T00:24:48.688Z,0
2019-01-11T00:25:48.662Z,0
2019-01-11T00:26:48.640Z,0
2019-01-11T00:27:48.725Z,0
2019-01-11T00:28:48.798Z,0
2019-01-11T00:29:48.590Z,0
2019-01-11T00:30:48.560Z,0
2019-01-11T00:31:48.536Z,0
2019-01-11T00:32:48.517Z,0
2019-01-11T00:33:48.497Z,0
2019-01-11T00:34:48.473Z,0
2019-01-11T00:35:48.457Z,0
2019-01-11T00:36:48.179Z,0
2019-01-11T00:37:48.414Z,0
2019-01-11T00:38:48.383Z,0
2019-01-11T00:39:47.871Z,0
2019-01-11T00:40:48.345Z,0
2019-01-11T00:41:48.077Z,0
2019-01-11T00:42:48.053Z,0
2019-01-11T00:43:48.282Z,0
2019-01-11T00:44:48.266Z,0
2019-01-11T00:45:47.995Z,0
2019-01-11T00:46:48.225Z,0
2019-01-11T00:47:47.954Z,0
2019-01-11T00:48:48.177Z,0
2019-01-11T00:49:47.907Z,0
2019-01-11T00:50:48.135Z,0
2019-01-11T00:51:48.113Z,0
2019-01-11T00:52:47.894Z,0
2019-01-11T00:53:48.068Z,0
2019-01-11T00:54:48.041Z,0
2019-01-11T00:55:48.024Z,0
2019-01-11T00:56:48.004Z,0
2019-01-11T00:57:47.991Z,0
2019-01-11T00:58:47.957Z,0
2019-01-11T00:59:47.995Z,0
2019-01-11T01:00:47.915Z,0
2019-01-11T01:01:47.903Z,0
2019-01-11T01:02:47.879Z,0
2019-01-11T01:03:47.852Z,0
2019-01-11T01:04:47.836Z,0
2019-01-11T01:05:47.819Z,0
2019-01-11T01:06:47.544Z,0
2019-01-11T01:07:47.526Z,0
2019-01-11T01:08:47.754Z,0
2019-01-11T01:09:47.728Z,0
2019-01-11T01:10:47.705Z,0
2019-01-11T01:11:47.435Z,0
2019-01-11T01:12:47.668Z,0
2019-01-11T01:13:47.433Z,0
2019-01-11T01:14:47.620Z,0
2019-01-11T01:15:47.356Z,0
2019-01-11T01:16:47.322Z,0
2019-01-11T01:17:47.309Z,0
2019-01-11T01:18:47.530Z,0
2019-01-11T01:19:48.545Z,0
2019-01-11T01:20:47.496Z,0
2019-01-11T01:21:47.472Z,0
2019-01-11T01:22:47.497Z,0
2019-01-11T01:23:47.179Z,0
2019-01-11T01:24:47.411Z,0
2019-01-11T01:25:47.384Z,0
2019-01-11T01:26:47.364Z,0
2019-01-11T01:27:47.342Z,0
2019-01-11T01:28:47.319Z,0
2019-01-11T01:29:47.355Z,0
2019-01-11T01:30:47.276Z,0
2019-01-11T01:31:47.249Z,0
2019-01-11T01:32:47.256Z,0
2019-01-11T01:33:47.213Z,0
2019-01-11T01:34:47.193Z,0
2019-01-11T01:35:47.216Z,0
2019-01-11T01:36:47.152Z,0
2019-01-11T01:37:47.136Z,0
2019-01-11T01:38:47.103Z,0
2019-01-11T01:39:46.840Z,0
2019-01-11T01:40:47.063Z,0
2019-01-11T01:41:47.042Z,0
2019-01-11T01:42:46.772Z,0
2019-01-11T01:43:46.994Z,0
2019-01-11T01:44:46.982Z,0
2019-01-11T01:45:46.704Z,0
2019-01-11T01:46:46.938Z,0
2019-01-11T01:47:46.911Z,0
2019-01-11T01:48:47.772Z,0
2019-01-11T01:49:46.873Z,0
2019-01-11T01:50:46.599Z,0
2019-01-11T01:51:46.576Z,0
2019-01-11T01:52:46.563Z,0
2019-01-11T01:53:46.535Z,0
2019-01-11T01:54:46.517Z,0
2019-01-11T01:55:46.500Z,0
2019-01-11T01:56:46.727Z,0
2019-01-11T01:57:46.699Z,0
2019-01-11T01:58:46.684Z,0
2019-01-11T01:59:46.668Z,0
2019-01-11T02:00:46.406Z,0
2019-01-11T02:01:46.613Z,0
2019-01-11T02:02:46.344Z,0
2019-01-11T02:03:46.580Z,0
2019-01-11T02:04:46.302Z,0
2019-01-11T02:05:46.522Z,0
2019-01-11T02:06:46.510Z,0
2019-01-11T02:07:46.233Z,0
2019-01-11T02:08:46.463Z,0
2019-01-11T02:09:46.195Z,0
2019-01-11T02:10:46.425Z,0
2019-01-11T02:11:46.401Z,0
2019-01-11T02:12:46.377Z,0
2019-01-11T02:13:46.363Z,0
2019-01-11T02:14:46.348Z,0
2019-01-11T02:15:46.311Z,0
2019-01-11T02:16:46.291Z,0
2019-01-11T02:17:46.274Z,0
2019-01-11T02:18:46.264Z,0
2019-01-11T02:19:46.238Z,0
2019-01-11T02:20:46.202Z,0
2019-01-11T02:21:45.939Z,0
2019-01-11T02:22:46.162Z,0
2019-01-11T02:23:46.144Z,0
2019-01-11T02:24:45.867Z,0
2019-01-11T02:25:51.021Z,0
2019-01-11T02:26:46.081Z,0
2019-01-11T02:27:46.057Z,0
2019-01-11T02:28:45.791Z,0
2019-01-11T02:29:46.017Z,0
2019-01-11T02:30:45.996Z,0
2019-01-11T02:31:45.982Z,0
2019-01-11T02:32:52.338Z,0
2019-01-11T02:33:45.932Z,0
2019-01-11T02:34:45.914Z,0
2019-01-11T02:35:45.887Z,0
2019-01-11T02:36:45.864Z,0
2019-01-11T02:37:45.844Z,0
2019-01-11T02:38:45.822Z,0
2019-01-11T02:39:45.802Z,0
2019-01-11T02:40:45.781Z,0
2019-01-11T02:41:45.764Z,0
2019-01-11T02:42:45.745Z,0
2019-01-11T02:43:45.716Z,0
2019-01-11T02:44:45.705Z,0
2019-01-11T02:45:45.427Z,0
2019-01-11T02:46:45.409Z,0
2019-01-11T02:47:45.626Z,0
2019-01-11T02:48:45.608Z,0
2019-01-11T02:49:47.567Z,0
2019-01-11T02:50:45.571Z,0
2019-01-11T02:51:45.081Z,0
2019-01-11T02:52:45.282Z,0
2019-01-11T02:53:45.277Z,0
2019-01-11T02:54:45.480Z,0
2019-01-11T02:55:45.458Z,0
2019-01-11T02:56:45.447Z,0
2019-01-11T02:57:45.172Z,0
2019-01-11T02:58:45.392Z,0
2019-01-11T02:59:45.377Z,0
2019-01-11T03:00:45.355Z,0
2019-01-11T03:01:45.333Z,0
2019-01-11T03:02:45.310Z,0
2019-01-11T03:03:45.289Z,0
2019-01-11T03:04:45.264Z,0
2019-01-11T03:05:45.255Z,0
2019-01-11T03:06:45.231Z,0
2019-01-11T03:07:44.962Z,0
2019-01-11T03:08:45.176Z,0
2019-01-11T03:09:45.165Z,0
2019-01-11T03:10:45.155Z,0
2019-01-11T03:11:45.136Z,0
2019-01-11T03:12:45.103Z,0
2019-01-11T03:13:45.081Z,0
2019-01-11T03:14:45.054Z,0
2019-01-11T03:15:45.050Z,0
2019-01-11T03:16:45.037Z,0
2019-01-11T03:17:44.995Z,0
2019-01-11T03:18:44.469Z,0
2019-01-11T03:19:52.470Z,0
2019-01-11T03:20:44.925Z,0
2019-01-11T03:21:44.411Z,0
2019-01-11T03:22:44.887Z,0
2019-01-11T03:23:44.863Z,0
2019-01-11T03:24:44.843Z,0
2019-01-11T03:25:44.601Z,0
2019-01-11T03:26:44.828Z,0
2019-01-11T03:27:44.784Z,0
2019-01-11T03:28:44.747Z,0
2019-01-11T03:29:44.733Z,0
2019-01-11T03:30:44.724Z,0
2019-01-11T03:31:44.718Z,0
2019-01-11T03:32:44.701Z,0
2019-01-11T03:33:44.408Z,0
2019-01-11T03:34:44.622Z,0
2019-01-11T03:35:44.613Z,0
2019-01-11T03:36:44.337Z,0
2019-01-11T03:37:44.099Z,0
2019-01-11T03:38:44.558Z,0
2019-01-11T03:39:44.512Z,0
2019-01-11T03:40:44.497Z,0
2019-01-11T03:41:44.492Z,0
2019-01-11T03:42:44.457Z,0
2019-01-11T03:43:44.438Z,0
2019-01-11T03:44:44.166Z,0
2019-01-11T03:45:44.145Z,0
2019-01-11T03:46:44.398Z,0
2019-01-11T03:47:44.339Z,0
2019-01-11T03:48:44.079Z,0
2019-01-11T03:49:44.560Z,0
2019-01-11T03:50:44.282Z,0
2019-01-11T03:51:44.270Z,0
2019-01-11T03:52:44.252Z,0
2019-01-11T03:53:44.217Z,0
2019-01-11T03:54:44.211Z,0
2019-01-11T03:55:44.179Z,0
2019-01-11T03:56:44.159Z,0
2019-01-11T03:57:44.137Z,0
2019-01-11T03:58:44.131Z,0
2019-01-11T03:59:44.107Z,0
2019-01-11T04:00:44.098Z,0
2019-01-11T04:01:44.052Z,0
2019-01-11T04:02:44.031Z,0
2019-01-11T04:03:44.007Z,0
2019-01-11T04:04:43.730Z,0
2019-01-11T04:05:43.809Z,0
2019-01-11T04:06:43.938Z,0
2019-01-11T04:07:43.913Z,0
2019-01-11T04:08:43.889Z,0
2019-01-11T04:09:43.868Z,0
2019-01-11T04:10:43.855Z,0
2019-01-11T04:11:43.829Z,0
2019-01-11T04:12:43.809Z,0
2019-01-11T04:13:43.292Z,0
2019-01-11T04:14:43.281Z,0
2019-01-11T04:15:43.750Z,0
2019-01-11T04:16:43.726Z,0
2019-01-11T04:17:43.715Z,0
2019-01-11T04:18:43.710Z,0
2019-01-11T04:19:43.665Z,0
2019-01-11T04:20:43.693Z,0
2019-01-11T04:21:43.622Z,0
2019-01-11T04:22:43.344Z,0
2019-01-11T04:23:43.583Z,0
2019-01-11T04:24:43.566Z,0
2019-01-11T04:25:43.531Z,0
2019-01-11T04:26:43.565Z,0
2019-01-11T04:27:43.486Z,0
2019-01-11T04:28:43.496Z,0
2019-01-11T04:29:43.454Z,0
2019-01-11T04:30:43.188Z,0
2019-01-11T04:31:43.403Z,0
2019-01-11T04:32:43.393Z,0
2019-01-11T04:33:43.363Z,0
2019-01-11T04:34:43.343Z,0
2019-01-11T04:35:43.321Z,0
2019-01-11T04:36:43.305Z,0
2019-01-11T04:37:43.276Z,0
2019-01-11T04:38:43.271Z,0
2019-01-11T04:39:43.252Z,0
2019-01-11T04:40:43.246Z,0
2019-01-11T04:41:43.187Z,0
2019-01-11T04:42:43.179Z,0
2019-01-11T04:43:43.153Z,0
2019-01-11T04:44:42.883Z,0
2019-01-11T04:45:43.111Z,0
2019-01-11T04:46:43.080Z,0
2019-01-11T04:47:42.838Z,0
2019-01-11T04:48:43.041Z,0
2019-01-11T04:49:43.022Z,0
2019-01-11T04:50:43.014Z,0
2019-01-11T04:51:42.974Z,0
2019-01-11T04:52:42.954Z,0
2019-01-11T04:53:42.695Z,0
2019-01-11T04:54:42.910Z,0
2019-01-11T04:55:42.896Z,0
2019-01-11T04:56:42.876Z,0
2019-01-11T04:57:42.854Z,0
2019-01-11T04:58:42.819Z,0
2019-01-11T04:59:42.806Z,0
2019-01-11T05:00:42.786Z,0
2019-01-11T05:01:42.774Z,0
2019-01-11T05:02:42.739Z,0
2019-01-11T05:03:42.721Z,0
2019-01-11T05:04:42.700Z,0
2019-01-11T05:05:42.677Z,0
2019-01-11T05:06:42.397Z,0
2019-01-11T05:07:42.627Z,0
2019-01-11T05:08:42.616Z,0
2019-01-11T05:09:42.335Z,0
2019-01-11T05:10:42.561Z,0
2019-01-11T05:11:42.540Z,0
2019-01-11T05:12:42.524Z,0
2019-01-11T05:13:42.497Z,0
2019-01-11T05:14:42.484Z,0
2019-01-11T05:15:42.505Z,0
2019-01-11T05:16:46.653Z,0
2019-01-11T05:17:42.436Z,0
2019-01-11T05:18:41.655Z,0
2019-01-11T05:19:41.874Z,0
2019-01-11T05:20:42.119Z,0
2019-01-11T05:21:42.324Z,0
2019-01-11T05:22:42.319Z,0
2019-01-11T05:23:42.301Z,0
2019-01-11T05:24:42.017Z,0
2019-01-11T05:25:42.252Z,0
2019-01-11T05:26:42.229Z,0
2019-01-11T05:27:42.203Z,0
2019-01-11T05:28:42.191Z,0
2019-01-11T05:29:42.159Z,0
2019-01-11T05:30:42.131Z,0
2019-01-11T05:31:42.117Z,0
2019-01-11T05:32:42.097Z,0
2019-01-11T05:33:42.073Z,0
2019-01-11T05:34:42.050Z,0
2019-01-11T05:35:42.034Z,0
2019-01-11T05:36:42.012Z,0
2019-01-11T05:37:42.529Z,0
2019-01-11T05:38:41.969Z,0
2019-01-11T05:39:41.957Z,0
2019-01-11T05:40:41.672Z,0
2019-01-11T05:41:41.898Z,0
2019-01-11T05:42:41.624Z,0
2019-01-11T05:43:41.851Z,0
2019-01-11T05:44:41.582Z,0
2019-01-11T05:45:41.813Z,0
2019-01-11T05:46:41.793Z,0
2019-01-11T05:47:41.769Z,0
2019-01-11T05:48:41.748Z,0
2019-01-11T05:49:41.742Z,0
2019-01-11T05:50:41.697Z,0
2019-01-11T05:51:41.432Z,0
2019-01-11T05:52:41.416Z,0
2019-01-11T05:53:41.402Z,0
2019-01-11T05:54:42.522Z,0
2019-01-11T05:55:41.604Z,0
2019-01-11T05:56:41.574Z,0
2019-01-11T05:57:41.553Z,0
2019-01-11T05:58:41.284Z,0
2019-01-11T05:59:41.261Z,0
2019-01-11T06:00:41.493Z,0
2019-01-11T06:01:41.469Z,0
2019-01-11T06:02:41.444Z,0
2019-01-11T06:03:41.426Z,0
2019-01-11T06:04:41.413Z,0
2019-01-11T06:05:41.394Z,0
2019-01-11T06:06:41.363Z,0
2019-01-11T06:07:41.346Z,0
2019-01-11T06:08:41.325Z,0
2019-01-11T06:09:41.099Z,0
2019-01-11T06:10:41.278Z,0
2019-01-11T06:11:41.254Z,0
2019-01-11T06:12:41.232Z,0
2019-01-11T06:13:41.209Z,0
2019-01-11T06:14:41.187Z,0
2019-01-11T06:15:41.165Z,0
2019-01-11T06:16:41.145Z,0
2019-01-11T06:17:41.122Z,0
2019-01-11T06:18:41.103Z,0
2019-01-11T06:19:41.079Z,0
2019-01-11T06:20:41.060Z,0
2019-01-11T06:21:41.037Z,0
2019-01-11T06:22:41.018Z,0
2019-01-11T06:23:41.004Z,0
2019-01-11T06:24:40.723Z,0
2019-01-11T06:25:40.960Z,0
2019-01-11T06:26:40.931Z,0
2019-01-11T06:27:40.906Z,0
2019-01-11T06:28:40.641Z,0
2019-01-11T06:29:40.865Z,0
2019-01-11T06:30:40.842Z,0
2019-01-11T06:31:40.720Z,0
2019-01-11T06:32:40.806Z,0
2019-01-11T06:33:40.789Z,0
2019-01-11T06:34:40.772Z,0
2019-01-11T06:35:40.736Z,0
2019-01-11T06:36:40.718Z,0
2019-01-11T06:37:40.695Z,0
2019-01-11T06:38:40.671Z,0
2019-01-11T06:39:40.397Z,4
2019-01-11T06:40:40.381Z,4
2019-01-11T06:41:40.610Z,0
2019-01-11T06:42:40.631Z,4
2019-01-11T06:43:40.565Z,4
2019-01-11T06:44:46.155Z,0
2019-01-11T06:45:40.556Z,4
2019-01-11T06:46:40.496Z,8
2019-01-11T06:47:41.583Z,4
2019-01-11T06:48:40.454Z,4
2019-01-11T06:49:40.436Z,8
2019-01-11T06:50:43.752Z,8
2019-01-11T06:51:40.393Z,8
2019-01-11T06:52:40.414Z,12
2019-01-11T06:53:40.352Z,12
2019-01-11T06:54:40.320Z,16
2019-01-11T06:55:40.306Z,16
2019-01-11T06:56:40.285Z,20
2019-01-11T06:57:40.012Z,24
2019-01-11T06:58:40.250Z,24
2019-01-11T06:59:40.224Z,28
2019-01-11T07:00:40.198Z,36
2019-01-11T07:01:40.180Z,36
2019-01-11T07:02:39.924Z,44
2019-01-11T07:03:40.134Z,48
2019-01-11T07:04:40.110Z,56
2019-01-11T07:05:39.592Z,60
2019-01-11T07:06:40.073Z,64
2019-01-11T07:07:40.049Z,68
2019-01-11T07:08:40.026Z,72
2019-01-11T07:09:40.143Z,80
2019-01-11T07:10:39.984Z,80
2019-01-11T07:11:39.963Z,88
2019-01-11T07:12:39.946Z,92
2019-01-11T07:13:39.919Z,96
2019-01-11T07:14:39.910Z,104
2019-01-11T07:15:39.875Z,112
2019-01-11T07:16:39.855Z,124
2019-01-11T07:17:39.835Z,132
2019-01-11T07:18:39.811Z,144
2019-01-11T07:19:39.791Z,160
2019-01-11T07:20:45.317Z,180
2019-01-11T07:21:39.746Z,204
2019-01-11T07:22:39.730Z,224
2019-01-11T07:23:39.710Z,252
2019-01-11T07:24:39.689Z,272
2019-01-11T07:25:39.662Z,296
2019-01-11T07:26:39.642Z,316
2019-01-11T07:27:39.617Z,336
2019-01-11T07:28:39.599Z,356
2019-01-11T07:29:39.572Z,380
2019-01-11T07:30:39.303Z,392
2019-01-11T07:31:39.537Z,400
2019-01-11T07:32:39.263Z,408
2019-01-11T07:33:39.489Z,416
2019-01-11T07:34:38.971Z,420
2019-01-11T07:35:39.196Z,428
2019-01-11T07:36:40.154Z,432
2019-01-11T07:37:39.408Z,440
2019-01-11T07:38:39.134Z,444
2019-01-11T07:39:39.361Z,452
2019-01-11T07:40:39.343Z,464
2019-01-11T07:41:38.821Z,472
2019-01-11T07:42:39.294Z,476
2019-01-11T07:43:39.275Z,476
2019-01-11T07:44:39.292Z,488
2019-01-11T07:45:39.234Z,500
2019-01-11T07:46:38.966Z,516
2019-01-11T07:47:39.199Z,528
2019-01-11T07:48:39.181Z,540
2019-01-11T07:49:39.147Z,552
2019-01-11T07:50:38.883Z,560
2019-01-11T07:51:39.104Z,568
2019-01-11T07:52:40.079Z,584
2019-01-11T07:53:39.065Z,588
2019-01-11T07:54:38.806Z,592
2019-01-11T07:55:38.771Z,588
2019-01-11T07:56:38.997Z,580
2019-01-11T07:57:38.992Z,576
2019-01-11T07:58:38.957Z,572
2019-01-11T07:59:38.693Z,572
2019-01-11T08:00:38.910Z,568
2019-01-11T08:01:38.903Z,564
2019-01-11T08:02:38.875Z,564
2019-01-11T08:03:38.853Z,568
2019-01-11T08:04:38.829Z,576
2019-01-11T08:05:38.804Z,596
2019-01-11T08:06:38.292Z,628
2019-01-11T08:07:38.768Z,668
2019-01-11T08:08:38.761Z,708
2019-01-11T08:09:38.473Z,748
2019-01-11T08:10:38.704Z,776
2019-01-11T08:11:38.683Z,804
2019-01-11T08:12:38.660Z,836
2019-01-11T08:13:38.637Z,868
2019-01-11T08:14:38.615Z,900
2019-01-11T08:15:38.596Z,948
2019-01-11T08:16:38.575Z,988
2019-01-11T08:17:38.704Z,1032
2019-01-11T08:18:38.605Z,1072
2019-01-11T08:19:38.515Z,1116
2019-01-11T08:20:38.236Z,1156
2019-01-11T08:21:38.471Z,1200
2019-01-11T08:22:38.447Z,1232
2019-01-11T08:23:38.427Z,1252
2019-01-11T08:24:38.398Z,1248
2019-01-11T08:25:38.380Z,1220
2019-01-11T08:26:38.360Z,1180
2019-01-11T08:27:38.096Z,1136
2019-01-11T08:28:38.323Z,1088
2019-01-11T08:29:38.300Z,1052
2019-01-11T08:30:38.276Z,1032
2019-01-11T08:31:41.931Z,1032
2019-01-11T08:32:38.236Z,1036
2019-01-11T08:33:37.965Z,1064
2019-01-11T08:34:38.204Z,1104
2019-01-11T08:35:38.176Z,1136
2019-01-11T08:36:38.158Z,1172
2019-01-11T08:37:38.135Z,1208
2019-01-11T08:38:38.152Z,1252
2019-01-11T08:39:39.732Z,1300
2019-01-11T08:40:38.073Z,1340
2019-01-11T08:41:37.800Z,1380
2019-01-11T08:42:37.776Z,1408
2019-01-11T08:43:38.007Z,1432
2019-01-11T08:44:37.987Z,1468
2019-01-11T08:45:37.959Z,1492
2019-01-11T08:46:37.697Z,1488
2019-01-11T08:47:37.917Z,1460
2019-01-11T08:48:37.898Z,1408
2019-01-11T08:49:37.882Z,1348
2019-01-11T08:50:37.855Z,1296
2019-01-11T08:51:37.843Z,1252
2019-01-11T08:52:37.564Z,1220
2019-01-11T08:53:37.791Z,1208
2019-01-11T08:54:37.778Z,1204
2019-01-11T08:55:37.511Z,1184
2019-01-11T08:56:37.731Z,1180
2019-01-11T08:57:37.471Z,1188
2019-01-11T08:58:37.443Z,1204
2019-01-11T08:59:37.667Z,1228
2019-01-11T09:00:37.651Z,1264
2019-01-11T09:01:37.626Z,1312
2019-01-11T09:02:37.607Z,1340
2019-01-11T09:03:37.606Z,1396
2019-01-11T09:04:37.318Z,1468
2019-01-11T09:05:37.542Z,1540
2019-01-11T09:06:37.524Z,1624
2019-01-11T09:07:37.259Z,1680
2019-01-11T09:08:37.488Z,1724
2019-01-11T09:09:37.464Z,1744
2019-01-11T09:10:37.439Z,1772
2019-01-11T09:11:36.926Z,1796
2019-01-11T09:12:37.156Z,1796
2019-01-11T09:13:37.381Z,1792
2019-01-11T09:14:37.359Z,1816
2019-01-11T09:15:37.335Z,1828
2019-01-11T09:16:37.315Z,1864
2019-01-11T09:17:37.297Z,1896
2019-01-11T09:18:37.293Z,1920
2019-01-11T09:19:37.253Z,1944
2019-01-11T09:20:37.238Z,1944
2019-01-11T09:21:41.537Z,1940
2019-01-11T09:22:37.196Z,1956
2019-01-11T09:23:36.682Z,1960
2019-01-11T09:24:37.150Z,1940
2019-01-11T09:25:37.222Z,1920
2019-01-11T09:26:37.108Z,1908
2019-01-11T09:27:37.090Z,1888
2019-01-11T09:28:37.073Z,1856
2019-01-11T09:29:37.049Z,1808
2019-01-11T09:30:37.036Z,1760
2019-01-11T09:31:37.005Z,1720
2019-01-11T09:32:36.738Z,1688
2019-01-11T09:33:36.967Z,1676
2019-01-11T09:34:36.698Z,1676
2019-01-11T09:35:36.931Z,1688
2019-01-11T09:36:36.908Z,1704
2019-01-11T09:37:36.887Z,1704
2019-01-11T09:38:36.871Z,1704
2019-01-11T09:39:36.840Z,1732
2019-01-11T09:40:36.827Z,1768
2019-01-11T09:41:36.815Z,1820
2019-01-11T09:42:36.790Z,1888
2019-01-11T09:43:36.763Z,1980
2019-01-11T09:44:36.745Z,2044
2019-01-11T09:45:36.718Z,2084
2019-01-11T09:46:36.700Z,2088
2019-01-11T09:47:36.681Z,2060
2019-01-11T09:48:36.700Z,2036
2019-01-11T09:49:37.241Z,2016
2019-01-11T09:50:36.368Z,1992
2019-01-11T09:51:36.638Z,1984
2019-01-11T09:52:36.335Z,1956
2019-01-11T09:53:36.558Z,1904
2019-01-11T09:54:36.292Z,1852
2019-01-11T09:55:36.269Z,1816
2019-01-11T09:56:36.496Z,1780
2019-01-11T09:57:36.237Z,1764
2019-01-11T09:58:36.452Z,1764
2019-01-11T09:59:42.134Z,1748
2019-01-11T10:00:36.412Z,1744
2019-01-11T10:01:36.397Z,1780
2019-01-11T10:02:36.656Z,1800
2019-01-11T10:03:36.348Z,1784
2019-01-11T10:04:36.337Z,1756
2019-01-11T10:05:36.307Z,1732
2019-01-11T10:06:35.799Z,1708
2019-01-11T10:07:36.270Z,1696
2019-01-11T10:08:36.013Z,1692
2019-01-11T10:09:36.233Z,1668
2019-01-11T10:10:36.215Z,1660
2019-01-11T10:11:35.944Z,1664
2019-01-11T10:12:36.178Z,1696
2019-01-11T10:13:36.152Z,1748
2019-01-11T10:14:36.136Z,1824
2019-01-11T10:15:36.114Z,1920
2019-01-11T10:16:36.087Z,2020
2019-01-11T10:17:35.823Z,2112
2019-01-11T10:18:35.805Z,2196
2019-01-11T10:19:35.782Z,2260
2019-01-11T10:20:36.006Z,2328
2019-01-11T10:21:35.741Z,2380
2019-01-11T10:22:35.970Z,2412
2019-01-11T10:23:35.948Z,2444
2019-01-11T10:24:35.926Z,2500
2019-01-11T10:25:35.907Z,2584
2019-01-11T10:26:35.883Z,2668
2019-01-11T10:27:35.872Z,2644
2019-01-11T10:28:35.845Z,2532
2019-01-11T10:29:35.830Z,2456
2019-01-11T10:30:35.602Z,2448
2019-01-11T10:31:35.534Z,2444
2019-01-11T10:32:35.272Z,2404
2019-01-11T10:33:40.812Z,2396
2019-01-11T10:34:35.476Z,2456
2019-01-11T10:35:35.706Z,2492
2019-01-11T10:36:35.692Z,2436
2019-01-11T10:37:35.742Z,2448
2019-01-11T10:38:35.652Z,2444
2019-01-11T10:39:35.378Z,2436
2019-01-11T10:40:35.600Z,2368
2019-01-11T10:41:35.332Z,2304
2019-01-11T10:42:35.560Z,2220
2019-01-11T10:43:35.539Z,2140
2019-01-11T10:44:35.528Z,2100
2019-01-11T10:45:35.502Z,2100
2019-01-11T10:46:35.494Z,2128
2019-01-11T10:47:35.468Z,2160
2019-01-11T10:48:35.195Z,2216
2019-01-11T10:49:35.420Z,2248
2019-01-11T10:50:35.401Z,2272
2019-01-11T10:51:35.419Z,2296
2019-01-11T10:52:35.371Z,2336
2019-01-11T10:53:35.343Z,2372
2019-01-11T10:54:35.326Z,2428
2019-01-11T10:55:35.299Z,2444
2019-01-11T10:56:35.278Z,2456
2019-01-11T10:57:35.261Z,2484
2019-01-11T10:58:34.995Z,2488
2019-01-11T10:59:35.221Z,2512
2019-01-11T11:00:35.558Z,2596
2019-01-11T11:01:34.933Z,2672
2019-01-11T11:02:35.163Z,2648
2019-01-11T11:03:35.141Z,2564
2019-01-11T11:04:35.121Z,2448
2019-01-11T11:05:34.856Z,2324
2019-01-11T11:06:34.838Z,2208
2019-01-11T11:07:35.067Z,2112
2019-01-11T11:08:35.042Z,2016
2019-01-11T11:09:35.025Z,1956
2019-01-11T11:10:34.762Z,1924
2019-01-11T11:11:35.002Z,1932
2019-01-11T11:12:34.961Z,2000
2019-01-11T11:13:34.974Z,2136
2019-01-11T11:14:34.690Z,2268
2019-01-11T11:15:34.900Z,2312
2019-01-11T11:16:37.749Z,2316
2019-01-11T11:17:34.616Z,2356
2019-01-11T11:18:35.266Z,2412
2019-01-11T11:19:34.973Z,2464
2019-01-11T11:20:34.803Z,2492
2019-01-11T11:21:39.500Z,2560
2019-01-11T11:22:34.774Z,2636
2019-01-11T11:23:34.504Z,2664
2019-01-11T11:24:34.728Z,2596
2019-01-11T11:25:34.960Z,2468
2019-01-11T11:26:34.690Z,2360
2019-01-11T11:27:34.679Z,2268
2019-01-11T11:28:34.647Z,2228
2019-01-11T11:29:34.628Z,2252
2019-01-11T11:30:34.612Z,2276
2019-01-11T11:31:33.838Z,2252
2019-01-11T11:32:34.333Z,2212
2019-01-11T11:33:34.550Z,2160
2019-01-11T11:34:34.531Z,2104
2019-01-11T11:35:34.528Z,2040
2019-01-11T11:36:34.771Z,2012
2019-01-11T11:37:34.474Z,2004
2019-01-11T11:38:34.457Z,2012
2019-01-11T11:39:34.426Z,2032
2019-01-11T11:40:34.420Z,2020
2019-01-11T11:41:33.894Z,1992
2019-01-11T11:42:34.378Z,1988
2019-01-11T11:43:34.115Z,1992
2019-01-11T11:44:34.339Z,1960
2019-01-11T11:45:34.066Z,1916
2019-01-11T11:46:34.290Z,1900
2019-01-11T11:47:34.280Z,1924
2019-01-11T11:48:34.258Z,1992
2019-01-11T11:49:34.241Z,2068
2019-01-11T11:50:33.967Z,2124
2019-01-11T11:51:33.693Z,2160
2019-01-11T11:52:33.929Z,2172
2019-01-11T11:53:34.175Z,2144
2019-01-11T11:54:33.888Z,2108
2019-01-11T11:55:34.118Z,2080
2019-01-11T11:56:34.095Z,2084
2019-01-11T11:57:34.082Z,2124
2019-01-11T11:58:33.812Z,2152
2019-01-11T11:59:34.040Z,2136
2019-01-11T12:00:34.023Z,2080
2019-01-11T12:01:33.751Z,2024
2019-01-11T12:02:33.986Z,2000
2019-01-11T12:03:33.960Z,2000
2019-01-11T12:04:33.936Z,2032
2019-01-11T12:05:33.930Z,2068
2019-01-11T12:06:33.900Z,2076
2019-01-11T12:07:33.633Z,2092
2019-01-11T12:08:33.613Z,2096
2019-01-11T12:09:33.843Z,2096
2019-01-11T12:10:33.821Z,2084
2019-01-11T12:11:33.811Z,2068
2019-01-11T12:12:33.976Z,2064
2019-01-11T12:13:36.943Z,2048
2019-01-11T12:14:33.501Z,2048
2019-01-11T12:15:33.324Z,2056
2019-01-11T12:16:33.707Z,2052
2019-01-11T12:17:33.685Z,2064
2019-01-11T12:18:33.413Z,2128
2019-01-11T12:19:33.645Z,2196
2019-01-11T12:20:33.644Z,2224
2019-01-11T12:21:33.612Z,2244
2019-01-11T12:22:33.592Z,2232
2019-01-11T12:23:33.323Z,2160
2019-01-11T12:24:33.302Z,2072
2019-01-11T12:25:33.535Z,2036
2019-01-11T12:26:33.516Z,2000
2019-01-11T12:27:33.495Z,1960
2019-01-11T12:28:33.476Z,1928
2019-01-11T12:29:33.455Z,1948
2019-01-11T12:30:33.430Z,1988
2019-01-11T12:31:33.425Z,2044
2019-01-11T12:32:33.388Z,2076
2019-01-11T12:33:33.385Z,2084
2019-01-11T12:34:33.351Z,2052
2019-01-11T12:35:33.116Z,1996
2019-01-11T12:36:33.065Z,1960
2019-01-11T12:37:33.041Z,1920
2019-01-11T12:38:33.279Z,1920
2019-01-11T12:39:33.262Z,1916
2019-01-11T12:40:33.294Z,1908
2019-01-11T12:41:33.222Z,1920
2019-01-11T12:42:33.188Z,1916
2019-01-11T12:43:33.175Z,1920
2019-01-11T12:44:33.155Z,1916
2019-01-11T12:45:32.890Z,1932
2019-01-11T12:46:33.123Z,1968
2019-01-11T12:47:33.099Z,1996
2019-01-11T12:48:33.076Z,1976
2019-01-11T12:49:33.267Z,1920
2019-01-11T12:50:33.095Z,1872
2019-01-11T12:51:33.020Z,1864
2019-01-11T12:52:32.992Z,1880
2019-01-11T12:53:33.005Z,1852
2019-01-11T12:54:32.959Z,1768
2019-01-11T12:55:32.478Z,1652
2019-01-11T12:56:32.929Z,1532
2019-01-11T12:57:32.655Z,1420
2019-01-11T12:58:32.635Z,1356
2019-01-11T12:59:32.860Z,1328
2019-01-11T13:00:32.866Z,1340
2019-01-11T13:01:32.825Z,1364
2019-01-11T13:02:32.563Z,1376
2019-01-11T13:03:32.802Z,1424
2019-01-11T13:04:32.527Z,1524
2019-01-11T13:05:32.753Z,1636
2019-01-11T13:06:32.727Z,1704
2019-01-11T13:07:32.714Z,1708
2019-01-11T13:08:32.188Z,1684
2019-01-11T13:09:32.672Z,1644
2019-01-11T13:10:32.649Z,1592
2019-01-11T13:11:32.628Z,1544
2019-01-11T13:12:32.580Z,1492
2019-01-11T13:13:32.596Z,1412
2019-01-11T13:14:32.325Z,1352
2019-01-11T13:15:32.549Z,1272
2019-01-11T13:16:32.284Z,1224
2019-01-11T13:17:32.509Z,1180
2019-01-11T13:18:32.491Z,1172
2019-01-11T13:19:32.466Z,1188
2019-01-11T13:20:32.466Z,1244
2019-01-11T13:21:32.182Z,1332
2019-01-11T13:22:32.411Z,1444
2019-01-11T13:23:32.393Z,1548
2019-01-11T13:24:32.376Z,1596
2019-01-11T13:25:37.004Z,1628
2019-01-11T13:26:32.331Z,1652
2019-01-11T13:27:32.065Z,1684
2019-01-11T13:28:32.294Z,1708
2019-01-11T13:29:32.034Z,1700
2019-01-11T13:30:32.258Z,1648
2019-01-11T13:31:32.246Z,1592
2019-01-11T13:32:32.219Z,1516
2019-01-11T13:33:31.959Z,1484
2019-01-11T13:34:32.864Z,1460
2019-01-11T13:35:31.910Z,1460
2019-01-11T13:36:32.561Z,1464
2019-01-11T13:37:32.116Z,1460
2019-01-11T13:38:32.103Z,1436
2019-01-11T13:39:32.076Z,1372
2019-01-11T13:40:32.060Z,1280
2019-01-11T13:41:32.039Z,1184
2019-01-11T13:42:32.024Z,1100
2019-01-11T13:43:32.004Z,1064
2019-01-11T13:44:31.982Z,1056
2019-01-11T13:45:31.963Z,1056
2019-01-11T13:46:31.943Z,1088
2019-01-11T13:47:33.176Z,1120
2019-01-11T13:48:31.897Z,1132
2019-01-11T13:49:31.153Z,1144
2019-01-11T13:50:31.869Z,1116
2019-01-11T13:51:31.843Z,1080
2019-01-11T13:52:31.839Z,1036
2019-01-11T13:53:31.593Z,1020
2019-01-11T13:54:31.786Z,1020
2019-01-11T13:55:31.266Z,1016
2019-01-11T13:56:31.799Z,984
2019-01-11T13:57:31.743Z,944
2019-01-11T13:58:31.713Z,932
2019-01-11T13:59:31.732Z,924
2019-01-11T14:00:31.173Z,920
2019-01-11T14:01:31.650Z,912
2019-01-11T14:02:31.624Z,896
2019-01-11T14:03:31.354Z,856